createdAt,value
2018-11-27T00:01:09.351Z,98824.84
2018-11-27T00:03:44.323Z,98820.43
2018-11-27T00:06:13.787Z,98822.16
2018-11-27T00:08:44.509Z,98835.17
2018-11-27T00:11:14.839Z,98827.48
2018-11-27T00:13:44.879Z,98830.11
2018-11-27T00:16:14.215Z,98837.58
2018-11-27T00:18:43.918Z,98839.63
2018-11-27T00:21:13.304Z,98842.37
2018-11-27T00:23:42.851Z,98839.44
2018-11-27T00:26:12.871Z,98841.81
2018-11-27T00:28:42.146Z,98836.47
2018-11-27T00:31:11.434Z,98832.27
2018-11-27T00:33:41.111Z,98835.91
2018-11-27T00:36:10.489Z,98842.37
2018-11-27T00:38:39.834Z,98844.92
2018-11-27T00:41:09.726Z,98846.64
2018-11-27T00:43:39.179Z,98849.67
2018-11-27T00:46:10.680Z,98847.55
2018-11-27T00:48:40.889Z,98843.37
2018-11-27T00:51:11.318Z,98849.87
2018-11-27T00:53:41.451Z,98846.96
2018-11-27T00:56:11.311Z,98853.25
2018-11-27T00:58:41.170Z,98853.52
2018-11-27T01:01:10.777Z,98858.48
2018-11-27T01:03:40.149Z,98859.34
2018-11-27T01:06:10.810Z,98866.34
2018-11-27T01:08:40.271Z,98866.00
2018-11-27T01:11:09.897Z,98865.84
2018-11-27T01:13:40.097Z,98868.77
2018-11-27T01:16:09.494Z,98867.66
2018-11-27T01:18:39.030Z,98871.74
2018-11-27T01:21:10.149Z,98878.14
2018-11-27T01:23:39.512Z,98874.77
2018-11-27T01:26:09.207Z,98878.45
2018-11-27T01:28:39.248Z,98882.83
2018-11-27T01:31:08.625Z,98882.54
2018-11-27T01:33:38.014Z,98888.58
2018-11-27T01:38:16.491Z,98884.38
2018-11-27T01:40:46.005Z,98884.34
2018-11-27T01:43:16.065Z,98882.88
2018-11-27T01:45:45.740Z,98890.53
2018-11-27T01:48:17.193Z,98890.50
2018-11-27T01:50:46.714Z,98893.67
2018-11-27T01:53:16.142Z,98890.22
2018-11-27T01:55:46.487Z,98885.03
2018-11-27T01:58:15.931Z,98895.97
2018-11-27T02:00:46.020Z,98888.83
2018-11-27T02:03:21.587Z,98894.16
2018-11-27T02:05:51.036Z,98893.95
2018-11-27T02:08:20.805Z,98887.50
2018-11-27T02:10:50.473Z,98889.05
2018-11-27T02:13:20.851Z,98891.62
2018-11-27T02:15:50.993Z,98899.32
2018-11-27T02:18:20.676Z,98889.80
2018-11-27T02:20:50.144Z,98893.30
2018-11-27T02:23:20.740Z,98899.80
2018-11-27T02:25:50.315Z,98893.19
2018-11-27T02:28:20.463Z,98893.59
2018-11-27T02:30:50.271Z,98896.87
2018-11-27T02:33:19.690Z,98897.98
2018-11-27T02:35:49.628Z,98902.20
2018-11-27T02:38:21.263Z,98903.41
2018-11-27T02:40:50.676Z,98908.73
2018-11-27T02:43:27.606Z,98909.97
2018-11-27T02:45:58.439Z,98905.27
2018-11-27T02:48:27.826Z,98910.27
2018-11-27T02:50:57.174Z,98919.51
2018-11-27T02:53:26.543Z,98921.97
2018-11-27T02:55:56.846Z,98915.66
2018-11-27T02:58:26.327Z,98926.02
2018-11-27T03:00:55.595Z,98929.30
2018-11-27T03:03:34.055Z,98928.63
2018-11-27T03:06:03.720Z,98928.12
2018-11-27T03:08:33.631Z,98931.25
2018-11-27T03:11:03.746Z,98932.97
2018-11-27T03:13:33.190Z,98938.58
2018-11-27T03:16:02.660Z,98939.94
2018-11-27T03:18:33.222Z,98938.20
2018-11-27T03:21:03.048Z,98938.26
2018-11-27T03:23:32.652Z,98941.97
2018-11-27T03:26:02.112Z,98940.66
2018-11-27T03:28:31.553Z,98944.32
2018-11-27T03:31:00.955Z,98950.87
2018-11-27T03:33:30.407Z,98949.84
2018-11-27T03:36:00.026Z,98951.48
2018-11-27T03:38:30.964Z,98951.94
2018-11-27T03:41:00.610Z,98966.52
2018-11-27T03:43:30.606Z,98962.11
2018-11-27T03:46:00.397Z,98958.55
2018-11-27T03:48:30.994Z,98952.81
2018-11-27T03:51:01.049Z,98952.34
2018-11-27T03:53:31.580Z,98956.19
2018-11-27T03:56:00.936Z,98953.31
2018-11-27T03:58:30.293Z,98956.00
2018-11-27T04:01:00.264Z,98952.70
2018-11-27T04:03:31.440Z,98963.11
2018-11-27T04:06:01.500Z,98962.17
2018-11-27T04:08:30.912Z,98963.80
2018-11-27T04:11:00.283Z,98964.10
2018-11-27T04:13:30.490Z,98965.11
2018-11-27T04:16:00.823Z,98972.97
2018-11-27T04:18:31.250Z,98976.15
2018-11-27T04:21:00.637Z,98973.77
2018-11-27T04:23:30.384Z,98971.21
2018-11-27T04:26:01.502Z,98974.90
2018-11-27T04:28:30.961Z,98974.78
2018-11-27T04:31:00.403Z,98970.28
2018-11-27T04:33:29.864Z,98971.27
2018-11-27T04:35:59.407Z,98972.75
2018-11-27T04:38:28.725Z,98978.70
2018-11-27T04:40:58.215Z,98978.20
2018-11-27T04:43:27.609Z,98988.28
2018-11-27T04:45:59.363Z,98989.08
2018-11-27T04:48:30.311Z,98987.08
2018-11-27T04:51:00.937Z,98981.22
2018-11-27T04:53:30.399Z,98985.98
2018-11-27T04:56:00.066Z,98990.44
2018-11-27T04:58:29.516Z,98986.46
2018-11-27T05:00:58.953Z,98995.72
2018-11-27T05:03:28.474Z,98997.06
2018-11-27T05:05:58.192Z,98996.78
2018-11-27T05:08:27.886Z,99006.74
2018-11-27T05:10:57.381Z,99015.88
2018-11-27T05:13:27.974Z,99018.89
2018-11-27T05:15:57.588Z,99019.13
2018-11-27T05:18:28.064Z,99022.18
2018-11-27T05:20:57.659Z,99026.41
2018-11-27T05:23:28.606Z,99024.96
2018-11-27T05:25:58.088Z,99026.70
2018-11-27T05:28:27.601Z,99026.77
2018-11-27T05:30:57.892Z,99022.22
2018-11-27T05:33:27.252Z,99031.86
2018-11-27T05:35:57.174Z,99037.83
2018-11-27T05:38:27.297Z,99038.42
2018-11-27T05:40:58.094Z,99032.77
2018-11-27T05:43:29.116Z,99044.23
2018-11-27T05:45:58.530Z,99044.00
2018-11-27T05:49:57.052Z,99048.66
2018-11-27T05:52:27.389Z,99036.20
2018-11-27T05:54:56.943Z,99051.62
2018-11-27T05:57:26.598Z,99054.61
2018-11-27T05:59:56.251Z,99045.60
2018-11-27T06:02:25.887Z,99053.40
2018-11-27T06:04:55.593Z,99050.07
2018-11-27T06:07:25.217Z,99052.30
2018-11-27T06:09:55.738Z,99057.97
2018-11-27T06:12:25.262Z,99056.66
2018-11-27T06:14:55.822Z,99061.52
2018-11-27T06:17:25.351Z,99059.56
2018-11-27T06:19:54.768Z,99064.07
2018-11-27T06:22:24.171Z,99076.42
2018-11-27T06:24:53.805Z,99077.09
2018-11-27T06:27:24.388Z,99077.78
2018-11-27T06:29:54.254Z,99077.66
2018-11-27T06:32:28.765Z,99081.47
2018-11-27T06:34:58.150Z,99089.55
2018-11-27T06:37:37.766Z,99089.39
2018-11-27T06:41:41.135Z,99094.50
2018-11-27T06:44:11.565Z,99097.86
2018-11-27T06:46:47.745Z,99101.55
2018-11-27T06:49:18.154Z,99119.92
2018-11-27T06:51:52.262Z,99120.22
2018-11-27T06:54:33.245Z,99129.56
2018-11-27T07:00:27.349Z,99135.02
2018-11-27T07:06:16.790Z,99142.19
2018-11-27T07:08:47.343Z,99145.89
2018-11-27T07:11:21.291Z,99149.07
2018-11-27T07:13:53.003Z,99148.96
2018-11-27T07:16:23.408Z,99157.46
2018-11-27T07:18:52.698Z,99164.24
2018-11-27T07:21:22.476Z,99164.15
2018-11-27T07:23:53.859Z,99159.44
2018-11-27T07:26:24.707Z,99169.31
2018-11-27T07:28:55.241Z,99179.44
2018-11-27T07:31:24.887Z,99172.30
2018-11-27T07:33:54.492Z,99180.94
2018-11-27T07:36:24.829Z,99185.63
2018-11-27T07:38:54.408Z,99179.27
2018-11-27T07:41:23.880Z,99183.90
2018-11-27T07:47:06.151Z,99192.87
2018-11-27T07:49:35.754Z,99200.31
2018-11-27T07:52:05.374Z,99204.45
2018-11-27T07:54:34.954Z,99201.30
2018-11-27T07:57:04.907Z,99217.61
2018-11-27T07:59:34.465Z,99220.44
2018-11-27T08:02:03.907Z,99220.69
2018-11-27T08:04:33.631Z,99226.60
2018-11-27T08:22:43.687Z,99254.01
2018-11-27T08:25:15.254Z,99257.92
2018-11-27T08:27:45.950Z,99263.75
2018-11-27T08:30:20.391Z,99262.75
2018-11-27T08:32:50.505Z,99266.01
2018-11-27T08:35:25.801Z,99266.42
2018-11-27T08:37:57.511Z,99266.37
2018-11-27T08:40:46.040Z,99266.09
2018-11-27T08:43:15.887Z,99265.92
2018-11-27T08:45:46.148Z,99278.02
2018-11-27T08:48:16.726Z,99277.59
2018-11-27T08:50:46.216Z,99269.90
2018-11-27T08:53:15.659Z,99271.42
2018-11-27T08:55:46.022Z,99281.94
2018-11-27T08:58:17.430Z,99281.48
2018-11-27T09:01:45.680Z,99292.66
2018-11-27T09:04:15.106Z,99300.45
2018-11-27T09:06:44.837Z,99301.57
2018-11-27T09:09:14.262Z,99302.69
2018-11-27T09:13:08.847Z,99307.02
2018-11-27T09:15:39.293Z,99308.81
2018-11-27T09:18:19.710Z,99313.53
2018-11-27T09:20:49.762Z,99314.51
2018-11-27T09:26:42.189Z,99322.05
2018-11-27T09:29:12.382Z,99317.70
2018-11-27T09:31:42.632Z,99327.14
2018-11-27T09:34:12.312Z,99327.35
2018-11-27T09:36:41.724Z,99327.88
2018-11-27T09:39:14.319Z,99324.71
2018-11-27T09:41:43.838Z,99315.41
2018-11-27T09:44:14.808Z,99316.98
2018-11-27T09:49:49.443Z,99319.23
2018-11-27T09:52:19.732Z,99320.20
2018-11-27T09:54:50.872Z,99322.23
2018-11-27T09:57:21.668Z,99330.88
2018-11-27T09:59:51.252Z,99335.13
2018-11-27T10:02:22.461Z,99329.22
2018-11-27T10:04:52.998Z,99332.48
2018-11-27T10:07:22.699Z,99336.58
2018-11-27T10:09:53.617Z,99334.19
2018-11-27T10:12:23.459Z,99336.73
2018-11-27T10:14:53.027Z,99333.80
2018-11-27T10:17:22.472Z,99340.84
2018-11-27T10:19:52.815Z,99342.10
2018-11-27T10:22:22.503Z,99341.59
2018-11-27T10:24:53.122Z,99341.27
2018-11-27T10:27:22.407Z,99349.05
2018-11-27T10:29:51.905Z,99348.41
2018-11-27T10:32:22.316Z,99351.81
2018-11-27T10:34:52.167Z,99352.78
2018-11-27T10:37:21.701Z,99338.67
2018-11-27T10:39:51.758Z,99349.00
2018-11-27T10:42:30.209Z,99349.65
2018-11-27T10:44:58.654Z,99344.48
2018-11-27T10:47:28.409Z,99351.02
2018-11-27T10:50:15.834Z,99355.83
2018-11-27T10:52:46.958Z,99348.88
2018-11-27T10:55:18.987Z,99349.88
2018-11-27T10:57:49.484Z,99347.17
2018-11-27T11:00:28.049Z,99348.47
2018-11-27T11:04:22.198Z,99346.23
2018-11-27T11:08:17.554Z,99347.55
2018-11-27T11:13:45.004Z,99360.72
2018-11-27T11:16:14.324Z,99365.79
2018-11-27T11:18:44.480Z,99366.36
2018-11-27T11:21:14.250Z,99370.23
2018-11-27T11:23:43.759Z,99366.27
2018-11-27T11:26:13.648Z,99365.71
2018-11-27T11:28:43.566Z,99372.52
2018-11-27T11:31:13.036Z,99368.32
2018-11-27T11:33:44.435Z,99363.30
2018-11-27T11:36:13.861Z,99362.56
2018-11-27T11:38:44.390Z,99369.25
2018-11-27T11:41:14.978Z,99366.31
2018-11-27T11:43:44.385Z,99373.76
2018-11-27T11:46:13.964Z,99372.66
2018-11-27T11:48:43.497Z,99370.17
2018-11-27T11:51:13.261Z,99370.55
2018-11-27T11:53:45.832Z,99374.67
2018-11-27T11:56:15.252Z,99377.64
2018-11-27T11:58:44.716Z,99382.53
2018-11-27T12:01:26.503Z,99392.33
2018-11-27T12:03:55.923Z,99395.20
2018-11-27T12:06:25.746Z,99402.55
2018-11-27T12:09:02.146Z,99409.05
2018-11-27T12:11:41.758Z,99413.66
2018-11-27T12:14:27.031Z,99418.91
2018-11-27T12:17:10.484Z,99415.27
2018-11-27T12:19:42.666Z,99411.75
2018-11-27T12:22:13.059Z,99411.38
2018-11-27T12:24:42.535Z,99408.35
2018-11-27T12:27:12.236Z,99411.17
2018-11-27T12:29:41.736Z,99379.95
2018-11-27T12:32:11.267Z,99422.52
2018-11-27T12:34:42.390Z,99417.89
2018-11-27T12:39:58.950Z,99424.97
2018-11-27T12:42:28.877Z,99429.91
2018-11-27T12:44:59.507Z,99439.16
2018-11-27T12:47:36.750Z,99444.20
2018-11-27T12:50:11.143Z,99446.38
2018-11-27T12:52:40.855Z,99443.30
2018-11-27T12:55:27.226Z,99443.11
2018-11-27T12:58:01.917Z,99444.25
2018-11-27T13:00:32.759Z,99455.90
2018-11-27T13:03:04.096Z,99453.44
2018-11-27T13:05:38.430Z,99449.92
2018-11-27T13:08:14.751Z,99455.89
2018-11-27T13:10:44.774Z,99457.71
2018-11-27T13:13:16.629Z,99459.09
2018-11-27T13:15:47.085Z,99456.20
2018-11-27T13:18:18.209Z,99459.41
2018-11-27T13:20:48.217Z,99464.27
2018-11-27T13:23:19.816Z,99464.27
2018-11-27T13:25:49.946Z,99468.41
2018-11-27T13:28:20.306Z,99470.88
2018-11-27T13:31:07.446Z,99469.30
2018-11-27T13:33:59.487Z,99475.27
2018-11-27T13:36:29.727Z,99484.27
2018-11-27T13:39:11.126Z,99481.91
2018-11-27T13:41:41.786Z,99487.22
2018-11-27T13:44:11.621Z,99482.63
2018-11-27T13:46:41.897Z,99487.54
2018-11-27T13:49:12.849Z,99489.73
2018-11-27T13:51:42.493Z,99490.44
2018-11-27T13:54:12.281Z,99492.38
2018-11-27T13:56:42.288Z,99503.00
2018-11-27T13:59:13.798Z,99498.66
2018-11-27T14:01:46.319Z,99502.56
2018-11-27T14:04:15.550Z,99505.63
2018-11-27T14:06:45.033Z,99508.25
2018-11-27T14:09:16.277Z,99511.75
2018-11-27T14:11:45.758Z,99510.50
2018-11-27T14:14:15.341Z,99510.71
2018-11-27T14:16:45.324Z,99513.20
2018-11-27T14:19:22.028Z,99511.98
2018-11-27T14:21:52.306Z,99511.70
2018-11-27T14:24:22.332Z,99511.65
2018-11-27T14:26:53.495Z,99512.68
2018-11-27T14:29:24.333Z,99516.80
2018-11-27T14:31:55.172Z,99524.64
2018-11-27T14:34:24.650Z,99520.41
2018-11-27T14:36:54.276Z,99526.01
2018-11-27T14:39:29.003Z,99526.28
2018-11-27T14:41:58.997Z,99525.14
2018-11-27T14:44:28.916Z,99527.77
2018-11-27T14:47:00.155Z,99546.48
2018-11-27T14:49:32.487Z,99545.36
2018-11-27T14:52:02.956Z,99546.54
2018-11-27T14:54:32.705Z,99550.98
2018-11-27T14:57:05.892Z,99550.23
2018-11-27T14:59:37.164Z,99551.91
2018-11-27T15:02:22.201Z,99550.22
2018-11-27T15:04:51.966Z,99553.03
2018-11-27T15:07:22.740Z,99551.76
2018-11-27T15:09:52.503Z,99546.75
2018-11-27T15:12:22.584Z,99546.03
2018-11-27T15:14:52.744Z,99536.11
2018-11-27T15:17:23.374Z,99542.33
2018-11-27T15:19:53.389Z,99544.85
2018-11-27T15:22:23.736Z,99550.08
2018-11-27T15:24:53.819Z,99555.22
2018-11-27T15:27:24.000Z,99548.59
2018-11-27T15:29:54.334Z,99544.98
2018-11-27T15:32:24.335Z,99543.86
2018-11-27T15:34:55.025Z,99551.89
2018-11-27T15:37:25.294Z,99550.80
2018-11-27T15:40:02.073Z,99560.36
2018-11-27T15:42:32.050Z,99552.44
2018-11-27T15:45:15.120Z,99557.48
2018-11-27T15:47:46.194Z,99558.80
2018-11-27T15:50:17.543Z,99561.63
2018-11-27T15:52:47.561Z,99566.78
2018-11-27T15:55:23.114Z,99568.38
2018-11-27T15:57:54.829Z,99566.10
2018-11-27T16:00:25.458Z,99567.20
2018-11-27T16:02:55.302Z,99575.64
2018-11-27T16:05:25.457Z,99572.34
2018-11-27T16:07:55.025Z,99572.44
2018-11-27T16:10:24.664Z,99573.34
2018-11-27T16:12:54.310Z,99569.63
2018-11-27T16:15:23.947Z,99569.05
2018-11-27T16:17:54.790Z,99568.27
2018-11-27T16:20:24.575Z,99577.70
2018-11-27T16:22:54.209Z,99588.83
2018-11-27T16:25:25.884Z,99588.45
2018-11-27T16:27:56.396Z,99592.75
2018-11-27T16:30:27.602Z,99598.20
2018-11-27T16:32:57.274Z,99595.01
2018-11-27T16:35:26.882Z,99599.32
2018-11-27T16:37:59.491Z,99594.52
2018-11-27T16:40:35.661Z,99600.34
2018-11-27T16:43:10.199Z,99603.73
2018-11-27T16:45:40.501Z,99605.20
2018-11-27T16:48:11.123Z,99607.50
2018-11-27T16:50:41.759Z,99615.60
2018-11-27T16:53:12.363Z,99618.56
2018-11-27T16:55:41.997Z,99621.67
2018-11-27T16:58:11.936Z,99624.03
2018-11-27T17:00:41.564Z,99627.06
2018-11-27T17:03:11.990Z,99620.42
2018-11-27T17:05:44.237Z,99631.39
2018-11-27T17:08:14.086Z,99634.37
2018-11-27T17:10:44.863Z,99631.47
2018-11-27T17:13:15.876Z,99635.84
2018-11-27T17:15:45.490Z,99640.64
2018-11-27T17:18:16.762Z,99636.72
2018-11-27T17:20:47.190Z,99640.52
2018-11-27T17:23:18.381Z,99624.38
2018-11-27T17:25:48.546Z,99645.17
2018-11-27T17:28:20.997Z,99646.36
2018-11-27T17:30:54.123Z,99644.17
2018-11-27T17:33:28.396Z,99646.16
2018-11-27T17:36:02.772Z,99654.60
2018-11-27T17:38:32.706Z,99659.94
2018-11-27T17:41:02.266Z,99664.44
2018-11-27T17:43:36.769Z,99667.05
2018-11-27T17:46:07.422Z,99672.57
2018-11-27T17:48:37.228Z,99675.50
2018-11-27T17:51:07.835Z,99682.81
2018-11-27T17:53:38.526Z,99677.41
2018-11-27T17:56:08.324Z,99690.36
2018-11-27T17:58:38.047Z,99685.03
2018-11-27T18:01:07.915Z,99688.66
2018-11-27T18:03:37.548Z,99697.88
2018-11-27T18:06:07.754Z,99698.56
2018-11-27T18:08:37.500Z,99690.42
2018-11-27T18:11:07.564Z,99700.91
2018-11-27T18:13:37.665Z,99702.70
2018-11-27T18:16:07.345Z,99707.33
2018-11-27T18:18:36.925Z,99702.02
2018-11-27T18:21:07.497Z,99703.40
2018-11-27T18:23:37.746Z,99702.11
2018-11-27T18:26:08.067Z,99704.82
2018-11-27T18:28:37.949Z,99701.68
2018-11-27T18:31:21.536Z,99705.52
2018-11-27T18:33:51.096Z,99703.41
2018-11-27T18:36:25.722Z,99708.73
2018-11-27T18:38:53.203Z,99712.13
2018-11-27T18:41:24.592Z,99714.45
2018-11-27T18:43:54.246Z,99706.73
2018-11-27T18:46:23.847Z,99718.36
2018-11-27T18:48:54.558Z,99721.83
2018-11-27T18:51:23.907Z,99725.81
2018-11-27T18:53:55.045Z,99721.84
2018-11-27T18:56:23.839Z,99720.64
2018-11-27T18:58:53.549Z,99726.36
2018-11-27T19:01:23.375Z,99725.64
2018-11-27T19:03:53.091Z,99726.44
2018-11-27T19:06:23.001Z,99720.52
2018-11-27T19:08:52.684Z,99720.63
2018-11-27T19:14:08.896Z,99730.41
2018-11-27T19:19:27.900Z,99739.77
2018-11-27T19:21:57.707Z,99728.81
2018-11-27T19:24:27.436Z,99731.32
2018-11-27T19:26:57.225Z,99730.89
2018-11-27T19:29:27.403Z,99735.13
2018-11-27T19:31:57.287Z,99739.22
2018-11-27T19:37:02.057Z,99751.77
2018-11-27T19:39:32.839Z,99746.35
2018-11-27T19:42:06.625Z,99753.72
2018-11-27T19:44:38.226Z,99753.61
2018-11-27T19:47:07.924Z,99761.77
2018-11-27T19:49:37.521Z,99763.41
2018-11-27T19:52:07.227Z,99766.48
2018-11-27T19:54:37.143Z,99757.40
2018-11-27T19:57:07.495Z,99762.85
2018-11-27T19:59:37.046Z,99767.42
2018-11-27T20:02:08.179Z,99774.16
2018-11-27T20:04:37.946Z,99772.70
2018-11-27T20:07:08.227Z,99781.11
2018-11-27T20:09:39.519Z,99783.50
2018-11-27T20:12:10.148Z,99791.71
2018-11-27T20:14:40.152Z,99783.89
2018-11-27T20:17:10.126Z,99780.20
2018-11-27T20:19:39.708Z,99787.97
2018-11-27T20:22:10.414Z,99790.70
2018-11-27T20:24:41.262Z,99797.86
2018-11-27T20:27:11.256Z,99793.94
2018-11-27T20:29:40.965Z,99788.87
2018-11-27T20:32:13.018Z,99797.98
2018-11-27T20:34:42.812Z,99798.02
2018-11-27T20:37:12.902Z,99806.48
2018-11-27T20:39:43.732Z,99804.65
2018-11-27T20:42:14.081Z,99809.98
2018-11-27T20:44:44.637Z,99814.94
2018-11-27T20:47:14.279Z,99815.06
2018-11-27T20:49:43.938Z,99821.66
2018-11-27T20:52:15.213Z,99826.44
2018-11-27T20:54:45.856Z,99822.64
2018-11-27T20:57:17.825Z,99818.30
2018-11-27T20:59:47.507Z,99821.59
2018-11-27T21:02:17.106Z,99821.98
2018-11-27T21:04:48.617Z,99829.84
2018-11-27T21:10:15.581Z,99826.85
2018-11-27T21:12:45.754Z,99830.20
2018-11-27T21:15:20.637Z,99833.30
2018-11-27T21:17:50.736Z,99828.91
2018-11-27T21:20:20.941Z,99836.64
2018-11-27T21:22:50.847Z,99834.25
2018-11-27T21:25:21.785Z,99843.41
2018-11-27T21:27:58.185Z,99850.05
2018-11-27T21:30:30.336Z,99852.95
2018-11-27T21:33:04.120Z,99854.70
2018-11-27T21:35:35.668Z,99856.80
2018-11-27T21:38:06.946Z,99858.73
2018-11-27T21:40:37.396Z,99869.41
2018-11-27T21:43:09.037Z,99873.61
2018-11-27T21:45:39.443Z,99874.30
2018-11-27T21:48:10.266Z,99872.02
2018-11-27T21:50:40.513Z,99876.02
2018-11-27T21:53:10.386Z,99873.31
2018-11-27T21:55:41.427Z,99877.62
2018-11-27T21:58:11.112Z,99876.06
2018-11-27T22:00:43.401Z,99880.30
2018-11-27T22:03:13.603Z,99869.52
2018-11-27T22:05:43.269Z,99867.81
2018-11-27T22:08:12.891Z,99874.23
2018-11-27T22:10:42.773Z,99881.46
2018-11-27T22:13:14.043Z,99881.56
2018-11-27T22:15:45.359Z,99877.67
2018-11-27T22:18:15.169Z,99876.99
2018-11-27T22:20:46.401Z,99875.27
2018-11-27T22:23:16.190Z,99876.05
2018-11-27T22:25:46.646Z,99882.55
2018-11-27T22:28:18.211Z,99882.66
2018-11-27T22:30:48.015Z,99879.43
2018-11-27T22:33:18.539Z,99880.70
2018-11-27T22:35:49.143Z,99885.17
2018-11-27T22:38:21.307Z,99889.80
2018-11-27T22:40:51.575Z,99889.70
2018-11-27T22:43:21.313Z,99889.27
2018-11-27T22:45:51.075Z,99899.20
2018-11-27T22:48:20.973Z,99896.73
2018-11-27T22:50:52.091Z,99901.75
2018-11-27T22:53:21.867Z,99906.78
2018-11-27T22:55:51.922Z,99909.08
2018-11-27T22:58:25.101Z,99908.89
2018-11-27T23:00:56.042Z,99919.81
2018-11-27T23:03:26.686Z,99920.34
2018-11-27T23:05:57.025Z,99927.52
2018-11-27T23:08:26.812Z,99930.48
2018-11-27T23:13:32.275Z,99928.89
2018-11-27T23:16:02.085Z,99932.62
2018-11-27T23:18:31.746Z,99931.83
2018-11-27T23:21:01.429Z,99927.18
2018-11-27T23:23:31.553Z,99933.95
2018-11-27T23:26:01.792Z,99926.63
2018-11-27T23:28:33.345Z,99918.11
2018-11-27T23:31:05.022Z,99913.64
2018-11-27T23:33:34.466Z,99916.20
2018-11-27T23:36:04.770Z,99917.81
2018-11-27T23:38:34.574Z,99920.52
2018-11-27T23:41:04.278Z,99915.84
2018-11-27T23:43:36.189Z,99919.43
2018-11-27T23:46:06.044Z,99885.02
2018-11-27T23:48:37.124Z,99922.28
2018-11-27T23:51:07.383Z,99921.80
2018-11-27T23:53:38.054Z,99922.80
2018-11-27T23:56:08.496Z,99927.41
2018-11-27T23:58:38.342Z,99923.85
